sensor_id;sensor_type;location;lat;lon;timestamp;P1;durP1;ratioP1;P2;durP2;ratioP2
34060;SDS011;20336;-33.424;-70.638;2022-07-12T00:01:52;17.97;;;10.27;;
34060;SDS011;20336;-33.424;-70.638;2022-07-12T00:04:19;17.80;;;9.87;;
34060;SDS011;20336;-33.424;-70.638;2022-07-12T00:06:46;16.80;;;9.33;;
34060;SDS011;20336;-33.424;-70.638;2022-07-12T00:09:13;15.50;;;9.07;;
34060;SDS011;20336;-33.424;-70.638;2022-07-12T00:11:40;16.17;;;9.97;;
34060;SDS011;20336;-33.424;-70.638;2022-07-12T00:14:07;12.67;;;9.10;;
34060;SDS011;20336;-33.424;-70.638;2022-07-12T00:16:35;13.40;;;8.10;;
34060;SDS011;20336;-33.424;-70.638;2022-07-12T00:19:02;11.93;;;7.90;;
34060;SDS011;20336;-33.424;-70.638;2022-07-12T00:21:29;13.93;;;8.93;;
34060;SDS011;20336;-33.424;-70.638;2022-07-12T00:23:56;12.77;;;8.10;;
34060;SDS011;20336;-33.424;-70.638;2022-07-12T00:26:23;9.63;;;6.57;;
34060;SDS011;20336;-33.424;-70.638;2022-07-12T00:28:49;12.43;;;7.70;;
34060;SDS011;20336;-33.424;-70.638;2022-07-12T00:31:16;14.33;;;7.83;;
34060;SDS011;20336;-33.424;-70.638;2022-07-12T00:33:43;11.77;;;7.23;;
34060;SDS011;20336;-33.424;-70.638;2022-07-12T00:36:10;12.63;;;7.93;;
34060;SDS011;20336;-33.424;-70.638;2022-07-12T00:38:37;12.87;;;7.97;;
34060;SDS011;20336;-33.424;-70.638;2022-07-12T00:41:04;11.10;;;7.43;;
34060;SDS011;20336;-33.424;-70.638;2022-07-12T00:43:32;11.60;;;7.57;;
34060;SDS011;20336;-33.424;-70.638;2022-07-12T00:45:59;14.87;;;8.90;;
34060;SDS011;20336;-33.424;-70.638;2022-07-12T00:48:26;13.87;;;8.93;;
34060;SDS011;20336;-33.424;-70.638;2022-07-12T00:50:52;17.30;;;10.50;;
34060;SDS011;20336;-33.424;-70.638;2022-07-12T00:53:19;21.80;;;12.13;;
34060;SDS011;20336;-33.424;-70.638;2022-07-12T00:55:53;16.50;;;10.60;;
34060;SDS011;20336;-33.424;-70.638;2022-07-12T00:58:23;20.47;;;12.00;;
34060;SDS011;20336;-33.424;-70.638;2022-07-12T01:00:51;23.67;;;11.80;;
34060;SDS011;20336;-33.424;-70.638;2022-07-12T01:03:20;26.23;;;13.20;;
34060;SDS011;20336;-33.424;-70.638;2022-07-12T01:05:47;21.87;;;12.03;;
34060;SDS011;20336;-33.424;-70.638;2022-07-12T01:08:15;20.47;;;11.50;;
34060;SDS011;20336;-33.424;-70.638;2022-07-12T01:10:42;20.23;;;12.17;;
34060;SDS011;20336;-33.424;-70.638;2022-07-12T01:13:10;22.13;;;11.10;;
34060;SDS011;20336;-33.424;-70.638;2022-07-12T01:15:37;16.90;;;10.93;;
34060;SDS011;20336;-33.424;-70.638;2022-07-12T01:18:05;16.97;;;11.13;;
34060;SDS011;20336;-33.424;-70.638;2022-07-12T01:20:32;19.67;;;10.87;;
34060;SDS011;20336;-33.424;-70.638;2022-07-12T01:23:00;16.23;;;10.90;;
34060;SDS011;20336;-33.424;-70.638;2022-07-12T01:25:28;14.73;;;9.17;;
34060;SDS011;20336;-33.424;-70.638;2022-07-12T01:27:55;13.50;;;8.13;;
34060;SDS011;20336;-33.424;-70.638;2022-07-12T01:30:22;12.37;;;6.80;;
34060;SDS011;20336;-33.424;-70.638;2022-07-12T01:32:49;9.73;;;5.77;;
34060;SDS011;20336;-33.424;-70.638;2022-07-12T01:35:16;6.37;;;4.47;;
34060;SDS011;20336;-33.424;-70.638;2022-07-12T01:37:43;8.67;;;5.07;;
34060;SDS011;20336;-33.424;-70.638;2022-07-12T01:40:11;9.37;;;5.17;;
34060;SDS011;20336;-33.424;-70.638;2022-07-12T01:42:39;6.60;;;4.67;;
34060;SDS011;20336;-33.424;-70.638;2022-07-12T01:45:09;12.23;;;6.77;;
34060;SDS011;20336;-33.424;-70.638;2022-07-12T01:47:36;13.43;;;7.00;;
34060;SDS011;20336;-33.424;-70.638;2022-07-12T01:50:05;13.30;;;8.13;;
34060;SDS011;20336;-33.424;-70.638;2022-07-12T01:52:33;25.13;;;10.80;;
34060;SDS011;20336;-33.424;-70.638;2022-07-12T01:55:01;19.13;;;11.73;;
34060;SDS011;20336;-33.424;-70.638;2022-07-12T01:57:28;25.20;;;12.93;;
34060;SDS011;20336;-33.424;-70.638;2022-07-12T01:59:57;27.50;;;12.80;;
34060;SDS011;20336;-33.424;-70.638;2022-07-12T02:02:31;27.03;;;13.77;;
34060;SDS011;20336;-33.424;-70.638;2022-07-12T02:05:01;24.47;;;13.80;;
34060;SDS011;20336;-33.424;-70.638;2022-07-12T02:07:29;21.30;;;12.20;;
34060;SDS011;20336;-33.424;-70.638;2022-07-12T02:09:57;20.73;;;12.43;;
34060;SDS011;20336;-33.424;-70.638;2022-07-12T02:12:24;29.23;;;14.23;;
34060;SDS011;20336;-33.424;-70.638;2022-07-12T02:14:51;26.43;;;15.20;;
34060;SDS011;20336;-33.424;-70.638;2022-07-12T02:17:18;26.30;;;15.63;;
34060;SDS011;20336;-33.424;-70.638;2022-07-12T02:19:45;26.23;;;16.43;;
34060;SDS011;20336;-33.424;-70.638;2022-07-12T02:22:12;23.37;;;14.87;;
34060;SDS011;20336;-33.424;-70.638;2022-07-12T02:24:38;21.83;;;14.50;;
34060;SDS011;20336;-33.424;-70.638;2022-07-12T02:27:05;22.77;;;13.53;;
34060;SDS011;20336;-33.424;-70.638;2022-07-12T02:29:32;23.83;;;13.47;;
34060;SDS011;20336;-33.424;-70.638;2022-07-12T02:32:01;16.47;;;11.10;;
34060;SDS011;20336;-33.424;-70.638;2022-07-12T02:34:28;13.60;;;8.80;;
34060;SDS011;20336;-33.424;-70.638;2022-07-12T02:36:55;12.00;;;8.17;;
34060;SDS011;20336;-33.424;-70.638;2022-07-12T02:39:22;11.57;;;8.00;;
34060;SDS011;20336;-33.424;-70.638;2022-07-12T02:41:49;11.33;;;7.77;;
34060;SDS011;20336;-33.424;-70.638;2022-07-12T02:44:16;12.37;;;7.93;;
34060;SDS011;20336;-33.424;-70.638;2022-07-12T02:46:43;10.37;;;7.23;;
34060;SDS011;20336;-33.424;-70.638;2022-07-12T02:49:10;11.40;;;7.17;;
34060;SDS011;20336;-33.424;-70.638;2022-07-12T02:51:36;13.47;;;8.57;;
34060;SDS011;20336;-33.424;-70.638;2022-07-12T02:54:03;12.27;;;8.23;;
34060;SDS011;20336;-33.424;-70.638;2022-07-12T02:56:30;12.63;;;7.60;;
34060;SDS011;20336;-33.424;-70.638;2022-07-12T02:58:57;13.83;;;8.40;;
34060;SDS011;20336;-33.424;-70.638;2022-07-12T03:01:24;10.97;;;8.03;;
34060;SDS011;20336;-33.424;-70.638;2022-07-12T03:03:50;11.73;;;8.00;;
34060;SDS011;20336;-33.424;-70.638;2022-07-12T03:06:17;14.77;;;9.10;;
34060;SDS011;20336;-33.424;-70.638;2022-07-12T03:08:44;11.73;;;8.33;;
34060;SDS011;20336;-33.424;-70.638;2022-07-12T03:11:11;13.90;;;8.57;;
34060;SDS011;20336;-33.424;-70.638;2022-07-12T03:13:38;17.23;;;11.07;;
34060;SDS011;20336;-33.424;-70.638;2022-07-12T03:16:05;14.17;;;9.00;;
34060;SDS011;20336;-33.424;-70.638;2022-07-12T03:18:32;14.10;;;8.30;;
34060;SDS011;20336;-33.424;-70.638;2022-07-12T03:20:59;11.13;;;7.43;;
34060;SDS011;20336;-33.424;-70.638;2022-07-12T03:23:26;15.70;;;9.10;;
34060;SDS011;20336;-33.424;-70.638;2022-07-12T03:25:53;12.43;;;6.80;;
34060;SDS011;20336;-33.424;-70.638;2022-07-12T03:28:24;11.97;;;7.60;;
34060;SDS011;20336;-33.424;-70.638;2022-07-12T03:30:51;17.60;;;10.23;;
34060;SDS011;20336;-33.424;-70.638;2022-07-12T03:33:18;15.47;;;9.37;;
34060;SDS011;20336;-33.424;-70.638;2022-07-12T03:35:45;10.77;;;6.63;;
34060;SDS011;20336;-33.424;-70.638;2022-07-12T03:38:11;11.17;;;7.17;;
34060;SDS011;20336;-33.424;-70.638;2022-07-12T03:40:38;10.80;;;7.80;;
34060;SDS011;20336;-33.424;-70.638;2022-07-12T03:43:05;12.27;;;6.67;;
34060;SDS011;20336;-33.424;-70.638;2022-07-12T03:45:32;10.97;;;7.13;;
34060;SDS011;20336;-33.424;-70.638;2022-07-12T03:47:59;12.50;;;7.63;;
34060;SDS011;20336;-33.424;-70.638;2022-07-12T03:50:26;13.27;;;7.87;;
34060;SDS011;20336;-33.424;-70.638;2022-07-12T03:52:53;10.57;;;7.07;;
34060;SDS011;20336;-33.424;-70.638;2022-07-12T03:55:20;11.67;;;7.47;;
34060;SDS011;20336;-33.424;-70.638;2022-07-12T03:57:48;13.63;;;7.77;;
34060;SDS011;20336;-33.424;-70.638;2022-07-12T04:00:14;15.10;;;8.30;;
34060;SDS011;20336;-33.424;-70.638;2022-07-12T04:02:41;11.53;;;7.67;;
34060;SDS011;20336;-33.424;-70.638;2022-07-12T04:05:10;10.80;;;7.17;;
34060;SDS011;20336;-33.424;-70.638;2022-07-12T04:07:38;12.33;;;7.13;;
34060;SDS011;20336;-33.424;-70.638;2022-07-12T04:10:06;13.37;;;7.83;;
34060;SDS011;20336;-33.424;-70.638;2022-07-12T04:12:48;17.33;;;8.30;;
34060;SDS011;20336;-33.424;-70.638;2022-07-12T04:15:15;16.10;;;8.87;;
34060;SDS011;20336;-33.424;-70.638;2022-07-12T04:17:41;10.93;;;7.63;;
34060;SDS011;20336;-33.424;-70.638;2022-07-12T04:20:08;15.87;;;8.40;;
34060;SDS011;20336;-33.424;-70.638;2022-07-12T04:22:36;12.13;;;7.37;;
34060;SDS011;20336;-33.424;-70.638;2022-07-12T04:25:04;13.17;;;8.10;;
34060;SDS011;20336;-33.424;-70.638;2022-07-12T04:27:32;12.97;;;8.50;;
34060;SDS011;20336;-33.424;-70.638;2022-07-12T04:29:59;10.50;;;7.80;;
34060;SDS011;20336;-33.424;-70.638;2022-07-12T04:32:26;16.03;;;9.90;;
34060;SDS011;20336;-33.424;-70.638;2022-07-12T04:34:53;12.03;;;8.80;;
34060;SDS011;20336;-33.424;-70.638;2022-07-12T04:37:19;19.20;;;11.40;;
34060;SDS011;20336;-33.424;-70.638;2022-07-12T04:39:46;16.00;;;10.30;;
34060;SDS011;20336;-33.424;-70.638;2022-07-12T04:42:13;13.97;;;10.07;;
34060;SDS011;20336;-33.424;-70.638;2022-07-12T04:44:40;18.37;;;9.57;;
34060;SDS011;20336;-33.424;-70.638;2022-07-12T04:47:07;19.63;;;11.67;;
34060;SDS011;20336;-33.424;-70.638;2022-07-12T04:49:34;15.67;;;11.33;;
34060;SDS011;20336;-33.424;-70.638;2022-07-12T04:52:01;19.70;;;12.40;;
34060;SDS011;20336;-33.424;-70.638;2022-07-12T04:54:28;24.60;;;13.77;;
34060;SDS011;20336;-33.424;-70.638;2022-07-12T04:56:55;20.00;;;12.33;;
34060;SDS011;20336;-33.424;-70.638;2022-07-12T04:59:22;22.20;;;14.37;;
34060;SDS011;20336;-33.424;-70.638;2022-07-12T05:01:49;16.70;;;11.77;;
34060;SDS011;20336;-33.424;-70.638;2022-07-12T05:04:15;19.63;;;12.43;;
34060;SDS011;20336;-33.424;-70.638;2022-07-12T05:06:42;18.00;;;10.93;;
34060;SDS011;20336;-33.424;-70.638;2022-07-12T05:09:09;17.83;;;11.17;;
34060;SDS011;20336;-33.424;-70.638;2022-07-12T05:11:36;18.77;;;10.53;;
34060;SDS011;20336;-33.424;-70.638;2022-07-12T05:14:03;18.90;;;9.90;;
34060;SDS011;20336;-33.424;-70.638;2022-07-12T05:16:30;19.03;;;9.97;;
34060;SDS011;20336;-33.424;-70.638;2022-07-12T05:18:57;21.47;;;12.77;;
34060;SDS011;20336;-33.424;-70.638;2022-07-12T05:21:26;21.67;;;12.33;;
34060;SDS011;20336;-33.424;-70.638;2022-07-12T05:23:53;20.53;;;12.23;;
34060;SDS011;20336;-33.424;-70.638;2022-07-12T05:26:20;19.70;;;12.03;;
34060;SDS011;20336;-33.424;-70.638;2022-07-12T05:28:47;19.53;;;10.17;;
34060;SDS011;20336;-33.424;-70.638;2022-07-12T05:31:14;16.77;;;11.33;;
34060;SDS011;20336;-33.424;-70.638;2022-07-12T05:33:41;19.60;;;10.73;;
34060;SDS011;20336;-33.424;-70.638;2022-07-12T05:36:07;17.03;;;10.23;;
34060;SDS011;20336;-33.424;-70.638;2022-07-12T05:38:34;18.60;;;11.40;;
34060;SDS011;20336;-33.424;-70.638;2022-07-12T05:41:02;14.60;;;9.80;;
34060;SDS011;20336;-33.424;-70.638;2022-07-12T05:43:28;25.17;;;12.80;;
34060;SDS011;20336;-33.424;-70.638;2022-07-12T05:45:55;17.63;;;11.10;;
34060;SDS011;20336;-33.424;-70.638;2022-07-12T05:48:22;16.07;;;9.73;;
34060;SDS011;20336;-33.424;-70.638;2022-07-12T05:50:49;17.80;;;10.20;;
34060;SDS011;20336;-33.424;-70.638;2022-07-12T05:53:16;15.57;;;9.63;;
34060;SDS011;20336;-33.424;-70.638;2022-07-12T05:55:49;14.53;;;9.43;;
34060;SDS011;20336;-33.424;-70.638;2022-07-12T05:58:17;13.17;;;9.23;;
34060;SDS011;20336;-33.424;-70.638;2022-07-12T06:00:45;14.37;;;8.97;;
34060;SDS011;20336;-33.424;-70.638;2022-07-12T06:03:13;14.43;;;9.30;;
34060;SDS011;20336;-33.424;-70.638;2022-07-12T06:05:40;13.30;;;8.57;;
34060;SDS011;20336;-33.424;-70.638;2022-07-12T06:08:07;17.13;;;10.20;;
34060;SDS011;20336;-33.424;-70.638;2022-07-12T06:10:34;12.53;;;8.07;;
34060;SDS011;20336;-33.424;-70.638;2022-07-12T06:13:01;20.47;;;10.80;;
34060;SDS011;20336;-33.424;-70.638;2022-07-12T06:15:29;15.37;;;10.77;;
34060;SDS011;20336;-33.424;-70.638;2022-07-12T06:17:56;15.90;;;9.73;;
34060;SDS011;20336;-33.424;-70.638;2022-07-12T06:20:23;16.70;;;11.17;;
34060;SDS011;20336;-33.424;-70.638;2022-07-12T06:22:50;21.57;;;11.73;;
34060;SDS011;20336;-33.424;-70.638;2022-07-12T06:25:16;15.27;;;9.63;;
34060;SDS011;20336;-33.424;-70.638;2022-07-12T06:27:43;13.57;;;9.33;;
34060;SDS011;20336;-33.424;-70.638;2022-07-12T06:30:12;14.67;;;8.47;;
34060;SDS011;20336;-33.424;-70.638;2022-07-12T06:32:39;12.70;;;8.83;;
34060;SDS011;20336;-33.424;-70.638;2022-07-12T06:35:05;15.80;;;9.07;;
34060;SDS011;20336;-33.424;-70.638;2022-07-12T06:37:32;15.77;;;9.40;;
34060;SDS011;20336;-33.424;-70.638;2022-07-12T06:39:59;16.57;;;9.50;;
34060;SDS011;20336;-33.424;-70.638;2022-07-12T06:42:26;15.53;;;10.50;;
34060;SDS011;20336;-33.424;-70.638;2022-07-12T06:44:53;18.63;;;11.07;;
34060;SDS011;20336;-33.424;-70.638;2022-07-12T06:47:20;18.30;;;11.47;;
34060;SDS011;20336;-33.424;-70.638;2022-07-12T06:49:47;17.33;;;11.33;;
34060;SDS011;20336;-33.424;-70.638;2022-07-12T06:52:14;17.07;;;11.40;;
34060;SDS011;20336;-33.424;-70.638;2022-07-12T06:54:40;19.67;;;11.47;;
34060;SDS011;20336;-33.424;-70.638;2022-07-12T06:57:07;18.97;;;12.23;;
34060;SDS011;20336;-33.424;-70.638;2022-07-12T06:59:34;18.83;;;12.20;;
34060;SDS011;20336;-33.424;-70.638;2022-07-12T07:02:01;19.27;;;12.10;;
34060;SDS011;20336;-33.424;-70.638;2022-07-12T07:04:29;20.70;;;12.37;;
34060;SDS011;20336;-33.424;-70.638;2022-07-12T07:06:56;19.13;;;12.13;;
34060;SDS011;20336;-33.424;-70.638;2022-07-12T07:09:23;17.43;;;11.80;;
34060;SDS011;20336;-33.424;-70.638;2022-07-12T07:11:50;20.17;;;12.07;;
34060;SDS011;20336;-33.424;-70.638;2022-07-12T07:14:17;19.23;;;12.73;;
34060;SDS011;20336;-33.424;-70.638;2022-07-12T07:16:44;17.67;;;12.13;;
34060;SDS011;20336;-33.424;-70.638;2022-07-12T07:19:11;17.53;;;11.43;;
34060;SDS011;20336;-33.424;-70.638;2022-07-12T07:21:38;21.10;;;12.47;;
34060;SDS011;20336;-33.424;-70.638;2022-07-12T07:24:05;17.27;;;11.13;;
34060;SDS011;20336;-33.424;-70.638;2022-07-12T07:26:32;18.37;;;11.57;;
34060;SDS011;20336;-33.424;-70.638;2022-07-12T07:29:00;21.07;;;11.90;;
34060;SDS011;20336;-33.424;-70.638;2022-07-12T07:31:45;21.03;;;12.80;;
34060;SDS011;20336;-33.424;-70.638;2022-07-12T07:34:11;18.87;;;12.10;;
34060;SDS011;20336;-33.424;-70.638;2022-07-12T07:36:38;17.30;;;11.87;;
34060;SDS011;20336;-33.424;-70.638;2022-07-12T07:39:06;19.17;;;12.33;;
34060;SDS011;20336;-33.424;-70.638;2022-07-12T07:41:33;19.50;;;11.73;;
34060;SDS011;20336;-33.424;-70.638;2022-07-12T07:44:03;17.60;;;12.07;;
34060;SDS011;20336;-33.424;-70.638;2022-07-12T07:46:29;22.20;;;12.67;;
34060;SDS011;20336;-33.424;-70.638;2022-07-12T07:48:56;19.23;;;12.33;;
34060;SDS011;20336;-33.424;-70.638;2022-07-12T07:51:23;16.33;;;11.50;;
34060;SDS011;20336;-33.424;-70.638;2022-07-12T07:53:50;18.17;;;10.50;;
34060;SDS011;20336;-33.424;-70.638;2022-07-12T07:56:17;13.17;;;8.43;;
34060;SDS011;20336;-33.424;-70.638;2022-07-12T07:58:43;14.30;;;8.80;;
34060;SDS011;20336;-33.424;-70.638;2022-07-12T08:01:10;14.27;;;8.50;;
34060;SDS011;20336;-33.424;-70.638;2022-07-12T08:03:37;19.30;;;9.70;;
34060;SDS011;20336;-33.424;-70.638;2022-07-12T08:06:04;10.57;;;7.37;;
34060;SDS011;20336;-33.424;-70.638;2022-07-12T08:08:31;9.57;;;6.70;;
34060;SDS011;20336;-33.424;-70.638;2022-07-12T08:10:58;10.50;;;7.63;;
34060;SDS011;20336;-33.424;-70.638;2022-07-12T08:13:26;12.97;;;8.20;;
34060;SDS011;20336;-33.424;-70.638;2022-07-12T08:15:52;16.07;;;7.97;;
34060;SDS011;20336;-33.424;-70.638;2022-07-12T08:18:19;17.43;;;8.53;;
34060;SDS011;20336;-33.424;-70.638;2022-07-12T08:20:46;15.50;;;9.83;;
34060;SDS011;20336;-33.424;-70.638;2022-07-12T08:23:13;19.23;;;11.17;;
34060;SDS011;20336;-33.424;-70.638;2022-07-12T08:25:40;17.77;;;10.87;;
34060;SDS011;20336;-33.424;-70.638;2022-07-12T08:28:07;27.33;;;13.90;;
34060;SDS011;20336;-33.424;-70.638;2022-07-12T08:30:34;21.87;;;13.17;;
34060;SDS011;20336;-33.424;-70.638;2022-07-12T08:33:01;27.37;;;14.70;;
34060;SDS011;20336;-33.424;-70.638;2022-07-12T08:35:28;23.20;;;14.43;;
34060;SDS011;20336;-33.424;-70.638;2022-07-12T08:37:55;28.03;;;15.87;;
34060;SDS011;20336;-33.424;-70.638;2022-07-12T08:40:22;23.27;;;14.00;;
34060;SDS011;20336;-33.424;-70.638;2022-07-12T08:42:49;25.40;;;14.40;;
34060;SDS011;20336;-33.424;-70.638;2022-07-12T08:45:15;28.83;;;15.30;;
34060;SDS011;20336;-33.424;-70.638;2022-07-12T08:47:42;25.90;;;14.93;;
34060;SDS011;20336;-33.424;-70.638;2022-07-12T08:50:10;25.30;;;15.33;;
34060;SDS011;20336;-33.424;-70.638;2022-07-12T08:52:42;24.07;;;14.27;;
34060;SDS011;20336;-33.424;-70.638;2022-07-12T08:55:23;21.50;;;12.73;;
34060;SDS011;20336;-33.424;-70.638;2022-07-12T08:57:52;15.13;;;9.97;;
34060;SDS011;20336;-33.424;-70.638;2022-07-12T09:00:20;13.80;;;8.73;;
34060;SDS011;20336;-33.424;-70.638;2022-07-12T09:02:49;14.73;;;8.10;;
34060;SDS011;20336;-33.424;-70.638;2022-07-12T09:05:18;9.37;;;6.13;;
34060;SDS011;20336;-33.424;-70.638;2022-07-12T09:07:47;11.97;;;6.80;;
34060;SDS011;20336;-33.424;-70.638;2022-07-12T09:10:14;8.63;;;6.07;;
34060;SDS011;20336;-33.424;-70.638;2022-07-12T09:12:42;12.03;;;7.07;;
34060;SDS011;20336;-33.424;-70.638;2022-07-12T09:15:19;12.30;;;6.53;;
34060;SDS011;20336;-33.424;-70.638;2022-07-12T09:20:29;8.70;;;5.70;;
34060;SDS011;20336;-33.424;-70.638;2022-07-12T09:22:58;8.27;;;6.10;;
34060;SDS011;20336;-33.424;-70.638;2022-07-12T09:25:26;8.03;;;5.23;;
34060;SDS011;20336;-33.424;-70.638;2022-07-12T09:27:54;13.87;;;6.57;;
34060;SDS011;20336;-33.424;-70.638;2022-07-12T09:30:25;5.77;;;3.70;;
34060;SDS011;20336;-33.424;-70.638;2022-07-12T09:32:56;5.00;;;3.70;;
34060;SDS011;20336;-33.424;-70.638;2022-07-12T09:41:04;7.57;;;3.50;;
34060;SDS011;20336;-33.424;-70.638;2022-07-12T09:43:31;5.17;;;2.83;;
34060;SDS011;20336;-33.424;-70.638;2022-07-12T09:45:59;3.73;;;2.63;;
34060;SDS011;20336;-33.424;-70.638;2022-07-12T09:48:27;3.40;;;2.67;;
34060;SDS011;20336;-33.424;-70.638;2022-07-12T09:50:55;6.03;;;3.90;;
34060;SDS011;20336;-33.424;-70.638;2022-07-12T09:53:33;8.90;;;4.93;;
34060;SDS011;20336;-33.424;-70.638;2022-07-12T09:56:14;7.27;;;4.87;;
34060;SDS011;20336;-33.424;-70.638;2022-07-12T09:58:53;6.40;;;3.87;;
34060;SDS011;20336;-33.424;-70.638;2022-07-12T10:01:22;6.43;;;3.60;;
34060;SDS011;20336;-33.424;-70.638;2022-07-12T10:03:53;7.20;;;3.77;;
34060;SDS011;20336;-33.424;-70.638;2022-07-12T10:06:28;6.73;;;4.37;;
34060;SDS011;20336;-33.424;-70.638;2022-07-12T10:08:56;5.90;;;3.90;;
34060;SDS011;20336;-33.424;-70.638;2022-07-12T10:11:23;3.97;;;3.03;;
34060;SDS011;20336;-33.424;-70.638;2022-07-12T10:13:51;4.50;;;3.50;;
34060;SDS011;20336;-33.424;-70.638;2022-07-12T10:16:26;7.63;;;4.83;;
34060;SDS011;20336;-33.424;-70.638;2022-07-12T10:21:53;7.00;;;4.33;;
34060;SDS011;20336;-33.424;-70.638;2022-07-12T10:29:47;9.80;;;5.97;;
34060;SDS011;20336;-33.424;-70.638;2022-07-12T10:32:21;14.43;;;8.80;;
34060;SDS011;20336;-33.424;-70.638;2022-07-12T10:34:59;9.37;;;6.47;;
34060;SDS011;20336;-33.424;-70.638;2022-07-12T10:37:29;11.93;;;8.20;;
34060;SDS011;20336;-33.424;-70.638;2022-07-12T10:40:15;14.50;;;8.60;;
34060;SDS011;20336;-33.424;-70.638;2022-07-12T10:45:34;16.67;;;9.20;;
34060;SDS011;20336;-33.424;-70.638;2022-07-12T10:48:07;13.67;;;8.43;;
34060;SDS011;20336;-33.424;-70.638;2022-07-12T10:50:54;12.47;;;8.00;;
34060;SDS011;20336;-33.424;-70.638;2022-07-12T11:01:11;16.20;;;9.23;;
34060;SDS011;20336;-33.424;-70.638;2022-07-12T11:03:43;12.83;;;7.70;;
34060;SDS011;20336;-33.424;-70.638;2022-07-12T11:06:13;11.00;;;7.03;;
34060;SDS011;20336;-33.424;-70.638;2022-07-12T11:08:48;6.23;;;3.97;;
34060;SDS011;20336;-33.424;-70.638;2022-07-12T11:11:14;5.57;;;4.00;;
34060;SDS011;20336;-33.424;-70.638;2022-07-12T11:13:41;7.40;;;4.10;;
34060;SDS011;20336;-33.424;-70.638;2022-07-12T11:16:08;9.37;;;6.43;;
34060;SDS011;20336;-33.424;-70.638;2022-07-12T11:18:36;6.93;;;4.70;;
34060;SDS011;20336;-33.424;-70.638;2022-07-12T11:21:03;5.90;;;3.50;;
34060;SDS011;20336;-33.424;-70.638;2022-07-12T11:23:31;16.37;;;10.13;;
34060;SDS011;20336;-33.424;-70.638;2022-07-12T11:25:59;24.57;;;14.87;;
34060;SDS011;20336;-33.424;-70.638;2022-07-12T11:28:29;25.77;;;15.17;;
34060;SDS011;20336;-33.424;-70.638;2022-07-12T11:31:03;22.83;;;14.30;;
34060;SDS011;20336;-33.424;-70.638;2022-07-12T11:33:35;26.40;;;15.47;;
34060;SDS011;20336;-33.424;-70.638;2022-07-12T11:36:04;25.73;;;14.27;;
34060;SDS011;20336;-33.424;-70.638;2022-07-12T11:38:33;23.17;;;13.07;;
34060;SDS011;20336;-33.424;-70.638;2022-07-12T11:41:02;27.57;;;16.20;;
34060;SDS011;20336;-33.424;-70.638;2022-07-12T11:43:31;29.43;;;16.10;;
34060;SDS011;20336;-33.424;-70.638;2022-07-12T11:45:59;33.30;;;19.13;;
34060;SDS011;20336;-33.424;-70.638;2022-07-12T11:48:27;33.10;;;15.80;;
34060;SDS011;20336;-33.424;-70.638;2022-07-12T11:51:00;29.67;;;16.70;;
34060;SDS011;20336;-33.424;-70.638;2022-07-12T11:53:32;30.63;;;18.07;;
34060;SDS011;20336;-33.424;-70.638;2022-07-12T11:56:00;28.07;;;17.77;;
34060;SDS011;20336;-33.424;-70.638;2022-07-12T11:58:29;31.80;;;18.77;;
34060;SDS011;20336;-33.424;-70.638;2022-07-12T12:00:58;29.63;;;16.83;;
34060;SDS011;20336;-33.424;-70.638;2022-07-12T12:03:25;30.00;;;16.73;;
34060;SDS011;20336;-33.424;-70.638;2022-07-12T12:05:53;33.80;;;18.87;;
34060;SDS011;20336;-33.424;-70.638;2022-07-12T12:08:21;26.97;;;18.07;;
34060;SDS011;20336;-33.424;-70.638;2022-07-12T12:10:53;31.07;;;17.97;;
34060;SDS011;20336;-33.424;-70.638;2022-07-12T12:13:23;28.10;;;16.50;;
34060;SDS011;20336;-33.424;-70.638;2022-07-12T12:15:54;29.77;;;17.53;;
34060;SDS011;20336;-33.424;-70.638;2022-07-12T12:18:36;32.77;;;18.67;;
34060;SDS011;20336;-33.424;-70.638;2022-07-12T12:21:08;26.77;;;15.87;;
34060;SDS011;20336;-33.424;-70.638;2022-07-12T12:23:37;31.03;;;17.40;;
34060;SDS011;20336;-33.424;-70.638;2022-07-12T12:26:16;27.13;;;16.43;;
34060;SDS011;20336;-33.424;-70.638;2022-07-12T12:31:15;28.10;;;16.40;;
34060;SDS011;20336;-33.424;-70.638;2022-07-12T12:36:19;29.27;;;16.60;;
34060;SDS011;20336;-33.424;-70.638;2022-07-12T12:38:48;30.50;;;16.40;;
34060;SDS011;20336;-33.424;-70.638;2022-07-12T12:41:20;32.57;;;18.50;;
34060;SDS011;20336;-33.424;-70.638;2022-07-12T12:43:48;29.97;;;15.67;;
34060;SDS011;20336;-33.424;-70.638;2022-07-12T12:49:46;34.10;;;16.67;;
34060;SDS011;20336;-33.424;-70.638;2022-07-12T12:52:17;27.57;;;16.27;;
34060;SDS011;20336;-33.424;-70.638;2022-07-12T12:54:44;32.03;;;19.10;;
34060;SDS011;20336;-33.424;-70.638;2022-07-12T12:57:11;28.00;;;17.17;;
34060;SDS011;20336;-33.424;-70.638;2022-07-12T12:59:38;31.83;;;18.13;;
34060;SDS011;20336;-33.424;-70.638;2022-07-12T13:02:05;31.73;;;17.67;;
34060;SDS011;20336;-33.424;-70.638;2022-07-12T13:04:33;27.73;;;16.83;;
34060;SDS011;20336;-33.424;-70.638;2022-07-12T13:07:02;30.23;;;16.93;;
34060;SDS011;20336;-33.424;-70.638;2022-07-12T13:09:30;31.60;;;18.70;;
34060;SDS011;20336;-33.424;-70.638;2022-07-12T13:11:58;34.27;;;18.93;;
34060;SDS011;20336;-33.424;-70.638;2022-07-12T13:14:25;28.77;;;15.87;;
34060;SDS011;20336;-33.424;-70.638;2022-07-12T13:16:52;27.40;;;14.80;;
34060;SDS011;20336;-33.424;-70.638;2022-07-12T13:19:19;36.60;;;18.23;;
34060;SDS011;20336;-33.424;-70.638;2022-07-12T13:21:46;30.20;;;18.67;;
34060;SDS011;20336;-33.424;-70.638;2022-07-12T13:24:13;37.80;;;20.30;;
34060;SDS011;20336;-33.424;-70.638;2022-07-12T13:26:40;30.83;;;18.47;;
34060;SDS011;20336;-33.424;-70.638;2022-07-12T13:29:06;30.10;;;17.87;;
34060;SDS011;20336;-33.424;-70.638;2022-07-12T13:31:33;32.00;;;17.27;;
34060;SDS011;20336;-33.424;-70.638;2022-07-12T13:34:00;28.40;;;16.03;;
34060;SDS011;20336;-33.424;-70.638;2022-07-12T13:36:27;33.53;;;16.77;;
34060;SDS011;20336;-33.424;-70.638;2022-07-12T13:38:54;29.40;;;16.20;;
34060;SDS011;20336;-33.424;-70.638;2022-07-12T13:41:40;25.43;;;15.23;;
34060;SDS011;20336;-33.424;-70.638;2022-07-12T13:44:07;27.00;;;16.43;;
34060;SDS011;20336;-33.424;-70.638;2022-07-12T13:46:34;28.20;;;16.70;;
34060;SDS011;20336;-33.424;-70.638;2022-07-12T13:49:01;30.73;;;17.27;;
34060;SDS011;20336;-33.424;-70.638;2022-07-12T13:51:28;34.20;;;17.67;;
34060;SDS011;20336;-33.424;-70.638;2022-07-12T13:53:55;25.53;;;16.03;;
34060;SDS011;20336;-33.424;-70.638;2022-07-12T13:56:21;28.87;;;16.37;;
34060;SDS011;20336;-33.424;-70.638;2022-07-12T13:58:48;25.87;;;16.20;;
34060;SDS011;20336;-33.424;-70.638;2022-07-12T14:01:15;31.07;;;16.83;;
34060;SDS011;20336;-33.424;-70.638;2022-07-12T14:03:42;28.40;;;17.13;;
34060;SDS011;20336;-33.424;-70.638;2022-07-12T14:06:09;30.47;;;16.50;;
34060;SDS011;20336;-33.424;-70.638;2022-07-12T14:08:36;30.23;;;16.67;;
34060;SDS011;20336;-33.424;-70.638;2022-07-12T14:11:02;26.30;;;15.47;;
34060;SDS011;20336;-33.424;-70.638;2022-07-12T14:13:29;29.30;;;16.70;;
34060;SDS011;20336;-33.424;-70.638;2022-07-12T14:15:56;29.37;;;15.57;;
34060;SDS011;20336;-33.424;-70.638;2022-07-12T14:18:24;23.43;;;14.60;;
34060;SDS011;20336;-33.424;-70.638;2022-07-12T14:20:51;27.47;;;15.17;;
34060;SDS011;20336;-33.424;-70.638;2022-07-12T14:23:18;24.73;;;14.80;;
34060;SDS011;20336;-33.424;-70.638;2022-07-12T14:25:45;25.37;;;15.47;;
34060;SDS011;20336;-33.424;-70.638;2022-07-12T14:28:13;28.67;;;15.27;;
34060;SDS011;20336;-33.424;-70.638;2022-07-12T14:30:40;32.83;;;14.00;;
34060;SDS011;20336;-33.424;-70.638;2022-07-12T14:33:07;26.97;;;13.13;;